Ana Sayfa
METAR-TAF:

METAR-TAF

Havaalanları :

Municipal

Tunica, Mississipi, Amerika Birleşik Devletleri

Enlem: 34-41-06N, Boylam: 090-20-52W, yükseklik: 59 m

Güncel hava durumu gözlemi

Rapor saat 17:35 UTC de 26 dakika önce yapıldı.
Rüzgar batıdan 8 kt
Sıcaklık 36°C
Nem 57%
Basınç 1014 hPa
Görüş mesafesi: 16.1 km
26000 ft yükseklikte az bulutlu

METAR: KUTA 251735Z AUTO 26008KT 10SM FEW260 36/26 A2995 RMK AO2 T03570264 $

Saat: 13:01 (18:01 UTC)


TAF: eksik

4.000'den fazla havaalanı için hava durumu gözlemleri ve tahminleri (METAR ve TAF raporları).

Kullanılabilir istasyonlar harita üzerinde sarı ve kırmızı noktalarla gösterilir.

İstasyonun adını görmek için fareyi noktanın üzerinde gezdirin.

Sonrasında hava gözlem ve tahminlerini görmek için tıklayın.

Haritayı değiştirmek için: yaklaştırmak için siyah artı işaretli yeşil düğmeye ve uzaklaştırmak için de eksi işaretli düğmeye hızla tıklayın; bitişik haritalar için yeşil okları kullanın.


METAR-TAF: